This is the latest recevied weather packets stored in our database for station/object IQ1LY-3. If no packets are shown the sender has not sent any weather packets the latest 10 day(s).
| Time | Temp. | Humidity | Pressure | Rain* | Wind** | Luminosity | Snow |
|---|---|---|---|---|---|---|---|
| 1777845189 | 14.44° C | 80% | 1017.9 hPa | 0 mm | - | - | - |
| 1777839117 | 15° C | 79% | 1017.9 hPa | 0 mm | - | - | - |
| 1777838516 | 15° C | 79% | 1017.9 hPa | 0 mm | - | - | - |
| 1777837915 | 15° C | 79% | 1017.6 hPa | 0 mm | - | - | - |
| 1777834310 | 16.67° C | 76% | 1017.6 hPa | 0 mm | - | - | - |
| 1777831782 | 17.22° C | 73% | 1017.6 hPa | 0 mm | - | - | - |
| 1777816728 | 20° C | 63% | 1019 hPa | 0 mm | - | - | - |
| 1777807530 | 20° C | 61% | 1020 hPa | 0 mm | - | - | - |
| 1777806297 | 20° C | 64% | 1020 hPa | 0 mm | - | - | - |
| 1777805696 | 20° C | 65% | 1020 hPa | 0 mm | - | - | - |
| 1777802028 | 19.44° C | 68% | 1020.3 hPa | 0 mm | - | - | - |
| 1777799624 | 18.89° C | 68% | 1020.3 hPa | 0 mm | - | - | - |
| 1777795955 | 18.33° C | 66% | 1020 hPa | 0 mm | - | - | - |
| 1777792950 | 17.78° C | 62% | 1020 hPa | 0 mm | - | - | - |
| 1777792318 | 18.33° C | 60% | 1020 hPa | 0 mm | - | - | - |
| 1777791717 | 18.33° C | 59% | 1019.6 hPa | 0 mm | - | - | - |
| 1777790514 | 16.67° C | 62% | 1019.6 hPa | 0 mm | - | - | - |
| 1777786246 | 11.11° C | 76% | 1019.6 hPa | 0 mm | - | - | - |
| 1777785013 | 10.56° C | 75% | 1019.6 hPa | 0 mm | - | - | - |
| 1777771638 | 11.11° C | 73% | 1020 hPa | 0 mm | - | - | - |
| 1777767432 | 11.11° C | 70% | 1020.3 hPa | 0 mm | - | - | - |
| 1777763826 | 11.67° C | 69% | 1020.7 hPa | 0 mm | - | - | - |
| 1777759020 | 12.22° C | 67% | 1021 hPa | 0 mm | - | - | - |
| 1777749881 | 15.56° C | 56% | 1020.7 hPa | 0 mm | - | - | - |
| 1777748679 | 16.11° C | 56% | 1020.7 hPa | 0 mm | - | - | - |
* Rain latest hour (hover to see other rain measurements)
** Current wind speed in m/s (hover to see current wind gust speed)